Time;durP1;ratioP1;P1;durP2;ratioP2;P2;SDS_P1;SDS_P2;PMS_P1;PMS_P2;Temp;Humidity;BMP_temperature;BMP_pressure;BME280_temperature;BME280_humidity;BME280_pressure;Samples;Min_cycle;Max_cycle;Signal;HPM_P1;HPM_P2
2023/02/22 00:01:06;;;;;;;8.50;5.30;;;6.70;99.90;;;;;;4996677;28;20176;-82
2023/02/22 00:03:31;;;;;;;8.63;5.75;;;6.80;99.90;;;;;;5003236;28;20175;-82
2023/02/22 00:05:59;;;;;;;8.80;7.30;;;7.30;99.90;;;;;;4998261;28;20187;-83
2023/02/22 00:08:29;;;;;;;6.47;5.10;;;6.90;99.90;;;;;;4998918;28;20747;-82
2023/02/22 00:10:58;;;;;;;7.57;4.97;;;6.70;99.90;;;;;;5008069;28;20179;-81
2023/02/22 00:13:24;;;;;;;5.57;4.40;;;6.90;99.90;;;;;;4998272;28;20213;-82
2023/02/22 00:15:49;;;;;;;9.60;5.17;;;7.30;99.90;;;;;;4996934;28;20313;-84
2023/02/22 00:18:17;;;;;;;7.33;5.00;;;6.60;99.90;;;;;;4998123;28;20302;-83
2023/02/22 00:20:43;;;;;;;7.00;5.53;;;6.90;99.90;;;;;;4994365;28;20266;-82
2023/02/22 00:23:20;;;;;;;7.97;5.10;;;7.00;99.90;;;;;;4994039;28;20827;-82
2023/02/22 00:25:48;;;;;;;8.70;5.20;;;6.60;99.90;;;;;;4994655;28;20440;-82
2023/02/22 00:28:14;;;;;;;6.03;5.43;;;6.50;99.90;;;;;;4995498;28;20222;-82
2023/02/22 00:30:42;;;;;;;5.97;4.80;;;6.60;99.90;;;;;;5001007;28;20188;-82
2023/02/22 00:33:10;;;;;;;8.02;6.13;;;6.40;99.90;;;;;;4997442;28;20457;-83
2023/02/22 00:35:35;;;;;;;10.35;5.40;;;6.80;99.90;;;;;;4996675;28;20194;-82
2023/02/22 00:38:02;;;;;;;7.77;5.17;;;6.80;99.90;;;;;;4997507;28;20719;-82
2023/02/22 00:40:30;;;;;;;7.30;4.93;;;6.60;99.90;;;;;;4999698;28;20195;-82
2023/02/22 00:43:01;;;;;;;6.75;5.15;;;6.60;99.90;;;;;;5003266;28;20179;-82
2023/02/22 00:45:28;;;;;;;9.00;4.72;;;6.20;99.90;;;;;;5006931;28;20278;-82
2023/02/22 00:47:55;;;;;;;7.63;5.75;;;6.70;99.90;;;;;;4995703;28;20208;-82
2023/02/22 00:50:22;;;;;;;7.10;5.40;;;6.70;99.90;;;;;;5013845;28;20183;-82
2023/02/22 00:52:48;;;;;;;7.75;4.40;;;6.70;99.90;;;;;;4998149;28;20180;-82
2023/02/22 00:55:25;;;;;;;9.32;4.78;;;6.60;99.90;;;;;;5010159;28;20205;-82
2023/02/22 00:57:52;;;;;;;9.10;5.15;;;6.90;99.90;;;;;;5011794;28;20233;-82
2023/02/22 01:00:22;;;;;;;5.75;5.15;;;6.80;99.90;;;;;;5001969;28;20179;-82
2023/02/22 01:02:51;;;;;;;6.63;5.45;;;6.70;99.90;;;;;;5005531;28;20225;-83
2023/02/22 01:05:22;;;;;;;6.25;5.00;;;6.60;99.90;;;;;;5007678;28;20183;-82
2023/02/22 01:07:48;;;;;;;6.15;4.95;;;6.50;99.90;;;;;;5000900;28;20215;-82
2023/02/22 01:10:14;;;;;;;5.03;4.47;;;6.60;99.90;;;;;;5008645;28;20246;-82
2023/02/22 01:12:40;;;;;;;7.60;4.50;;;6.80;99.90;;;;;;5004185;28;20186;-82
2023/02/22 01:15:10;;;;;;;6.78;4.93;;;6.60;99.90;;;;;;5000485;28;20190;-82
2023/02/22 01:17:37;;;;;;;5.00;4.50;;;6.70;99.90;;;;;;5004851;28;20286;-81
2023/02/22 01:20:09;;;;;;;7.60;4.75;;;6.80;99.90;;;;;;5004232;28;20195;-82
2023/02/22 01:22:36;;;;;;;8.23;5.53;;;6.40;99.90;;;;;;4993947;28;20187;-82
2023/02/22 01:25:02;;;;;;;6.65;5.15;;;6.70;99.90;;;;;;5006482;28;20538;-82
2023/02/22 01:27:27;;;;;;;7.93;5.50;;;6.80;99.90;;;;;;5002515;28;20705;-82
2023/02/22 01:29:53;;;;;;;6.57;4.53;;;6.40;99.90;;;;;;4997932;28;20469;-82
2023/02/22 01:32:18;;;;;;;9.63;5.10;;;6.60;99.90;;;;;;5004990;28;20218;-82
2023/02/22 01:34:45;;;;;;;5.23;4.73;;;6.30;99.90;;;;;;4996298;28;20187;-82
2023/02/22 01:37:10;;;;;;;7.20;4.85;;;6.40;99.90;;;;;;5004711;28;20480;-82
2023/02/22 01:39:36;;;;;;;7.77;5.47;;;6.30;99.90;;;;;;4999445;28;20695;-82
2023/02/22 01:42:02;;;;;;;6.70;4.77;;;6.60;99.90;;;;;;5004153;28;20191;-82
2023/02/22 01:44:31;;;;;;;5.23;4.73;;;6.30;99.90;;;;;;5003572;28;20199;-82
2023/02/22 01:46:59;;;;;;;8.35;5.13;;;6.70;99.90;;;;;;4993393;28;20572;-82
2023/02/22 01:49:30;;;;;;;8.38;4.53;;;6.10;99.90;;;;;;4998050;28;20609;-82
2023/02/22 01:51:59;;;;;;;6.65;5.40;;;6.40;99.90;;;;;;5006423;28;20686;-82
2023/02/22 01:54:33;;;;;;;6.45;5.15;;;6.00;99.90;;;;;;4996883;28;20884;-82
2023/02/22 01:57:14;;;;;;;6.55;4.93;;;5.80;99.90;;;;;;5003573;28;20212;-82
2023/02/22 01:59:44;;;;;;;6.32;4.00;;;5.90;99.90;;;;;;4999405;28;20262;-82
2023/02/22 02:02:12;;;;;;;6.43;4.40;;;5.60;99.90;;;;;;4999273;28;20188;-83
2023/02/22 02:04:41;;;;;;;5.47;4.15;;;6.00;99.90;;;;;;5018960;28;20210;-82
2023/02/22 02:07:10;;;;;;;7.22;4.57;;;6.10;99.90;;;;;;5000132;28;20238;-82
2023/02/22 02:09:47;;;;;;;5.38;4.43;;;6.10;99.90;;;;;;4998217;28;20643;-82
2023/02/22 02:12:16;;;;;;;5.75;4.18;;;6.00;99.90;;;;;;4992213;28;20302;-82
2023/02/22 02:14:42;;;;;;;6.68;4.88;;;5.40;99.90;;;;;;5002653;28;20278;-82
2023/02/22 02:17:14;;;;;;;6.53;4.57;;;6.20;99.90;;;;;;4996076;28;20216;-82
2023/02/22 02:20:01;;;;;;;6.15;5.13;;;5.80;99.90;;;;;;4992817;28;20286;-82
2023/02/22 02:22:41;;;;;;;8.55;4.93;;;5.90;99.90;;;;;;5016300;28;20842;-82
2023/02/22 02:25:44;;;;;;;6.65;4.72;;;6.10;99.90;;;;;;4996035;28;20184;-82
2023/02/22 02:28:38;;;;;;;6.53;4.90;;;5.90;99.90;;;;;;5016588;28;20203;-82
2023/02/22 02:31:15;;;;;;;5.95;4.45;;;6.30;99.90;;;;;;4988478;28;20183;-83
2023/02/22 02:33:52;;;;;;;5.28;4.50;;;5.60;99.90;;;;;;4996987;28;20278;-83
2023/02/22 02:36:55;;;;;;;6.53;4.63;;;6.10;99.90;;;;;;5005950;28;20685;-83
2023/02/22 02:39:29;;;;;;;8.50;4.40;;;6.00;99.90;;;;;;4994000;28;20757;-83
2023/02/22 02:41:57;;;;;;;6.32;4.70;;;6.00;99.90;;;;;;5003640;28;20182;-83
2023/02/22 02:45:11;;;;;;;5.38;4.60;;;5.90;99.90;;;;;;4998687;28;20726;-82
2023/02/22 02:47:43;;;;;;;6.13;4.78;;;6.10;99.90;;;;;;4988557;28;20296;-83
2023/02/22 02:50:32;;;;;;;6.05;4.65;;;5.80;99.90;;;;;;4989103;28;20750;-82
2023/02/22 02:53:03;;;;;;;6.90;5.63;;;6.00;99.90;;;;;;4990080;28;20267;-83
2023/02/22 02:55:30;;;;;;;8.88;4.63;;;5.70;99.90;;;;;;4991685;28;20215;-82
2023/02/22 02:57:56;;;;;;;8.57;5.10;;;6.00;99.90;;;;;;4994485;28;20202;-82
2023/02/22 03:00:27;;;;;;;7.23;4.53;;;6.00;99.90;;;;;;4996530;28;20183;-82
2023/02/22 03:03:29;;;;;;;6.25;4.65;;;6.40;99.90;;;;;;5016901;28;20183;-82
2023/02/22 03:06:15;;;;;;;6.05;4.75;;;6.20;99.90;;;;;;5009590;28;20179;-82
2023/02/22 03:08:58;;;;;;;5.75;4.68;;;5.90;99.90;;;;;;4996994;28;20192;-82
2023/02/22 03:11:31;;;;;;;7.30;5.28;;;5.90;99.90;;;;;;4996119;28;20182;-82
2023/02/22 03:14:21;;;;;;;6.57;5.03;;;5.50;99.90;;;;;;4995006;28;20189;-82
2023/02/22 03:17:06;;;;;;;6.03;5.32;;;5.80;99.90;;;;;;5002150;28;20199;-83
2023/02/22 03:19:46;;;;;;;6.68;5.40;;;5.30;99.90;;;;;;5003582;28;20219;-83
2023/02/22 03:22:19;;;;;;;6.18;5.47;;;6.10;99.90;;;;;;4989844;28;20183;-83
2023/02/22 03:24:51;;;;;;;5.55;4.75;;;5.60;99.90;;;;;;4996087;28;20192;-83
2023/02/22 03:27:27;;;;;;;6.53;4.95;;;5.50;99.90;;;;;;5014014;28;20213;-82
2023/02/22 03:29:59;;;;;;;10.50;6.93;;;5.90;99.90;;;;;;5002276;28;20229;-82
2023/02/22 03:32:29;;;;;;;8.35;6.38;;;6.30;99.90;;;;;;4985759;28;20181;-82
2023/02/22 03:35:06;;;;;;;7.88;6.28;;;5.90;99.90;;;;;;5000842;28;20179;-82
2023/02/22 03:37:36;;;;;;;6.40;5.47;;;5.80;99.90;;;;;;4989591;28;20234;-82
2023/02/22 03:40:12;;;;;;;8.27;6.40;;;5.70;99.90;;;;;;5006781;28;20261;-82
2023/02/22 03:42:42;;;;;;;9.15;5.55;;;5.80;99.90;;;;;;5005152;28;20281;-82
2023/02/22 03:45:08;;;;;;;7.03;5.40;;;5.90;99.90;;;;;;4995582;28;20199;-83
2023/02/22 03:47:44;;;;;;;5.95;4.97;;;5.80;99.90;;;;;;5000232;28;20209;-83
2023/02/22 03:50:14;;;;;;;6.80;5.72;;;6.40;99.90;;;;;;5002440;28;20174;-82
2023/02/22 03:52:41;;;;;;;8.77;6.28;;;5.90;99.90;;;;;;4996297;28;20876;-82
2023/02/22 03:55:10;;;;;;;8.60;6.30;;;6.20;99.90;;;;;;5000678;28;20183;-82
2023/02/22 03:57:38;;;;;;;7.65;5.97;;;6.10;99.90;;;;;;4999295;28;20260;-83
2023/02/22 04:00:07;;;;;;;8.25;6.43;;;6.30;99.90;;;;;;4994069;28;20288;-83
2023/02/22 04:02:33;;;;;;;8.38;5.97;;;6.00;99.90;;;;;;5000338;28;20188;-83
2023/02/22 04:04:59;;;;;;;7.82;6.32;;;6.40;99.90;;;;;;5000183;28;20837;-82
2023/02/22 04:07:25;;;;;;;9.90;6.05;;;6.10;99.90;;;;;;4997658;28;20226;-82
2023/02/22 04:09:51;;;;;;;11.20;6.10;;;6.20;99.90;;;;;;5008436;28;20246;-82
2023/02/22 04:12:16;;;;;;;8.70;6.60;;;6.20;99.90;;;;;;5009120;28;20317;-82
2023/02/22 04:14:42;;;;;;;8.20;6.87;;;6.10;99.90;;;;;;4996313;28;20461;-81
2023/02/22 04:17:07;;;;;;;10.70;6.63;;;6.10;99.90;;;;;;4994985;28;20206;-83
2023/02/22 04:19:33;;;;;;;10.00;6.50;;;6.40;99.90;;;;;;5004769;28;20304;-82
2023/02/22 04:21:59;;;;;;;11.03;7.60;;;5.90;99.90;;;;;;5000461;28;20561;-82
2023/02/22 04:24:25;;;;;;;11.13;7.80;;;6.40;99.90;;;;;;5003578;28;20438;-82
2023/02/22 04:26:50;;;;;;;7.70;6.50;;;6.40;99.90;;;;;;4997659;28;20290;-83
2023/02/22 04:29:16;;;;;;;9.50;6.60;;;6.20;99.90;;;;;;5001770;28;20865;-83
2023/02/22 04:31:41;;;;;;;9.43;6.90;;;6.00;99.90;;;;;;4995163;28;20258;-82
2023/02/22 04:34:07;;;;;;;11.40;6.87;;;6.40;99.90;;;;;;5005995;28;20191;-82
2023/02/22 04:36:32;;;;;;;8.47;6.37;;;5.90;99.90;;;;;;5003601;28;20248;-82
2023/02/22 04:38:59;;;;;;;9.53;6.83;;;5.90;99.90;;;;;;5001319;28;20241;-82
2023/02/22 04:41:24;;;;;;;9.75;7.00;;;6.10;99.90;;;;;;4998641;28;20270;-82
2023/02/22 04:43:50;;;;;;;8.83;7.03;;;5.80;99.90;;;;;;5002734;28;20258;-82
2023/02/22 04:46:16;;;;;;;9.93;6.50;;;5.80;99.90;;;;;;5000702;28;20191;-82
2023/02/22 04:48:41;;;;;;;8.93;6.47;;;6.30;99.90;;;;;;4999033;28;20203;-82
2023/02/22 04:51:07;;;;;;;9.83;7.60;;;5.80;99.90;;;;;;4996496;28;20187;-82
2023/02/22 04:53:33;;;;;;;7.57;6.77;;;5.90;99.90;;;;;;5001222;28;20195;-82
2023/02/22 04:55:59;;;;;;;8.27;7.10;;;5.90;99.90;;;;;;5004037;28;20187;-82
2023/02/22 04:58:24;;;;;;;7.93;7.13;;;6.00;99.90;;;;;;4999070;28;20213;-82
2023/02/22 05:00:50;;;;;;;10.10;6.83;;;6.40;99.90;;;;;;5002279;28;20279;-82
2023/02/22 05:03:15;;;;;;;7.93;7.13;;;6.40;99.90;;;;;;4996287;28;20685;-81
2023/02/22 05:05:41;;;;;;;9.67;7.60;;;6.00;99.90;;;;;;5001496;28;20187;-81
2023/02/22 05:08:06;;;;;;;10.67;7.90;;;6.00;99.90;;;;;;4998285;28;20204;-83
2023/02/22 05:10:32;;;;;;;8.83;7.93;;;6.40;99.90;;;;;;5002713;28;20846;-82
2023/02/22 05:12:58;;;;;;;11.03;7.93;;;5.90;99.90;;;;;;4999617;28;20640;-82
2023/02/22 05:15:24;;;;;;;7.33;6.40;;;6.30;99.90;;;;;;5004806;28;20269;-82
2023/02/22 05:17:50;;;;;;;8.55;7.65;;;6.30;99.90;;;;;;5004393;28;20218;-82
2023/02/22 05:20:32;;;;;;;9.07;7.00;;;5.90;99.90;;;;;;4998528;28;20210;-82
2023/02/22 05:22:59;;;;;;;9.07;7.28;;;5.90;99.90;;;;;;5004943;28;20434;-82
2023/02/22 05:25:26;;;;;;;8.38;7.15;;;6.00;99.90;;;;;;5002055;28;20187;-83
2023/02/22 05:27:54;;;;;;;8.30;7.50;;;5.90;99.90;;;;;;5006804;28;20206;-82
2023/02/22 05:30:25;;;;;;;9.52;6.90;;;5.90;99.90;;;;;;4995969;28;20186;-83
2023/02/22 05:32:51;;;;;;;12.10;7.40;;;6.50;99.90;;;;;;4999558;28;20183;-82
2023/02/22 05:35:18;;;;;;;8.05;7.15;;;6.40;99.90;;;;;;5002843;28;20183;-82
2023/02/22 05:37:43;;;;;;;10.13;7.95;;;6.00;99.90;;;;;;5000510;28;20294;-82
2023/02/22 05:40:10;;;;;;;7.70;7.00;;;6.10;99.90;;;;;;5008599;28;20318;-82
2023/02/22 05:42:36;;;;;;;9.43;7.30;;;6.40;99.90;;;;;;4998913;28;20298;-82
2023/02/22 05:45:02;;;;;;;10.77;7.60;;;6.20;99.90;;;;;;4997392;28;20195;-83
2023/02/22 05:47:28;;;;;;;8.43;7.53;;;6.10;99.90;;;;;;4995603;28;20725;-82
2023/02/22 05:49:53;;;;;;;11.70;7.30;;;6.10;99.90;;;;;;5000003;28;20191;-82
2023/02/22 05:52:19;;;;;;;11.90;7.83;;;6.20;99.90;;;;;;5002398;28;20437;-82
2023/02/22 05:54:45;;;;;;;9.82;7.38;;;6.00;99.90;;;;;;4983899;28;20592;-82
2023/02/22 05:57:10;;;;;;;8.10;7.00;;;6.20;99.90;;;;;;4995170;28;20261;-81
2023/02/22 05:59:36;;;;;;;12.30;7.43;;;6.30;99.90;;;;;;4993721;28;20199;-82
2023/02/22 06:02:01;;;;;;;9.60;8.10;;;6.30;99.90;;;;;;4995370;28;20183;-82
2023/02/22 06:04:27;;;;;;;11.40;7.73;;;6.40;99.90;;;;;;5005139;28;20191;-82
2023/02/22 06:06:52;;;;;;;9.20;8.20;;;5.90;99.90;;;;;;4996497;28;20666;-82
2023/02/22 06:09:18;;;;;;;8.20;7.10;;;6.00;99.90;;;;;;4993837;28;20183;-82
2023/02/22 06:11:44;;;;;;;10.03;7.17;;;5.80;99.90;;;;;;4993940;28;20199;-82
2023/02/22 06:14:09;;;;;;;9.07;7.50;;;5.80;99.90;;;;;;4987347;28;20191;-82
2023/02/22 06:16:35;;;;;;;8.83;7.37;;;5.70;99.90;;;;;;4989946;28;20199;-82
2023/02/22 06:19:00;;;;;;;10.03;8.27;;;5.90;99.90;;;;;;4991506;28;20226;-81
2023/02/22 06:21:26;;;;;;;9.77;7.30;;;5.70;99.90;;;;;;4997635;28;20191;-81
2023/02/22 06:23:52;;;;;;;12.17;7.83;;;6.20;99.90;;;;;;4993283;28;20184;-82
2023/02/22 06:26:18;;;;;;;11.80;7.30;;;6.10;99.90;;;;;;5005181;28;20442;-81
2023/02/22 06:28:45;;;;;;;9.63;7.47;;;6.00;99.90;;;;;;5006712;28;20457;-81
2023/02/22 06:31:10;;;;;;;9.90;7.82;;;5.90;99.90;;;;;;4989904;28;20190;-81
2023/02/22 06:33:36;;;;;;;12.07;7.80;;;6.00;99.90;;;;;;4997344;28;20187;-81
2023/02/22 06:36:01;;;;;;;8.30;7.50;;;6.10;99.90;;;;;;5005917;28;20198;-82
2023/02/22 06:38:27;;;;;;;10.30;7.80;;;6.10;99.90;;;;;;4995000;28;20210;-81
2023/02/22 06:40:54;;;;;;;10.80;7.63;;;5.70;99.90;;;;;;4993602;28;20196;-82
2023/02/22 06:43:20;;;;;;;9.40;8.40;;;6.00;99.90;;;;;;4989429;28;20238;-83
2023/02/22 06:45:46;;;;;;;13.98;8.18;;;5.80;99.90;;;;;;4995550;28;20217;-83
2023/02/22 06:48:12;;;;;;;11.63;7.10;;;5.90;99.90;;;;;;4999580;28;20672;-83
2023/02/22 06:50:38;;;;;;;10.25;7.80;;;5.40;99.90;;;;;;4993799;28;20198;-82
2023/02/22 06:53:03;;;;;;;12.30;7.93;;;6.10;99.90;;;;;;4987719;28;20622;-82
2023/02/22 06:55:31;;;;;;;8.80;7.73;;;6.50;99.90;;;;;;5005002;28;20650;-83
2023/02/22 06:57:57;;;;;;;9.50;7.20;;;6.60;99.90;;;;;;4999723;28;20467;-82
2023/02/22 07:00:24;;;;;;;11.20;8.75;;;6.40;99.90;;;;;;5002051;28;20270;-83
2023/02/22 07:02:51;;;;;;;10.90;7.18;;;6.50;99.90;;;;;;5002511;28;20605;-83
2023/02/22 07:05:18;;;;;;;9.30;6.65;;;6.80;99.90;;;;;;5006454;28;20269;-82
2023/02/22 07:07:44;;;;;;;8.50;7.57;;;6.60;99.90;;;;;;4992935;28;20261;-82
2023/02/22 07:10:26;;;;;;;9.80;7.70;;;6.90;99.90;;;;;;5008350;28;20191;-81
2023/02/22 07:12:52;;;;;;;10.23;7.45;;;6.60;99.90;;;;;;5002865;28;20470;-83
2023/02/22 07:15:20;;;;;;;10.25;6.68;;;6.70;99.90;;;;;;5024417;28;20187;-83
2023/02/22 07:17:46;;;;;;;7.93;6.93;;;6.90;99.90;;;;;;5002897;28;20309;-82
2023/02/22 07:20:12;;;;;;;8.90;7.60;;;7.60;99.90;;;;;;4999975;28;20335;-81
2023/02/22 07:22:38;;;;;;;12.00;7.90;;;7.40;99.90;;;;;;4984537;28;20529;-81
2023/02/22 07:25:05;;;;;;;10.50;6.65;;;7.50;99.90;;;;;;4991757;28;20825;-81
2023/02/22 07:27:31;;;;;;;9.00;8.00;;;7.50;99.90;;;;;;4987000;28;20239;-81
2023/02/22 07:29:57;;;;;;;10.40;6.93;;;7.90;99.90;;;;;;4997092;28;20221;-81
2023/02/22 07:32:23;;;;;;;9.23;6.93;;;7.80;99.90;;;;;;4999897;28;20521;-81
2023/02/22 07:34:48;;;;;;;10.70;7.33;;;7.80;99.90;;;;;;4997242;28;20220;-82
2023/02/22 07:37:14;;;;;;;8.87;7.70;;;8.20;99.90;;;;;;5000467;28;20450;-81
2023/02/22 07:39:42;;;;;;;9.30;7.73;;;7.80;99.90;;;;;;4989043;28;20289;-82
2023/02/22 07:42:08;;;;;;;9.98;7.65;;;8.00;99.90;;;;;;4993080;28;20224;-82
2023/02/22 07:44:33;;;;;;;10.67;8.00;;;7.90;99.90;;;;;;4994507;28;20197;-83
2023/02/22 07:47:00;;;;;;;8.87;7.43;;;8.00;99.90;;;;;;4990918;28;20249;-82
2023/02/22 07:49:27;;;;;;;8.45;7.63;;;8.50;99.90;;;;;;4988388;28;20199;-87
2023/02/22 07:51:52;;;;;;;10.60;7.60;;;8.30;99.90;;;;;;4992436;28;20193;-85
2023/02/22 07:54:18;;;;;;;10.27;7.40;;;8.90;99.90;;;;;;5017040;28;20191;-84
2023/02/22 07:56:47;;;;;;;10.03;7.67;;;8.60;99.90;;;;;;4993837;28;20241;-84
2023/02/22 07:59:13;;;;;;;9.60;7.60;;;8.20;99.90;;;;;;5000526;28;20582;-84
2023/02/22 08:01:39;;;;;;;16.65;9.32;;;8.20;99.90;;;;;;5001427;28;20185;-83
2023/02/22 08:04:05;;;;;;;12.27;8.37;;;9.20;99.90;;;;;;5006753;28;20660;-84
2023/02/22 08:06:30;;;;;;;15.13;8.13;;;9.30;99.90;;;;;;5008276;28;20927;-85
2023/02/22 08:08:56;;;;;;;9.60;8.60;;;9.20;99.90;;;;;;4996424;28;20796;-88
2023/02/22 08:11:23;;;;;;;9.00;8.07;;;9.40;99.90;;;;;;5000798;28;20189;-86
2023/02/22 08:13:49;;;;;;;12.38;8.77;;;9.10;99.90;;;;;;5008181;28;20189;-84
2023/02/22 08:16:15;;;;;;;9.40;7.90;;;9.80;99.90;;;;;;5006299;28;20192;-85
2023/02/22 08:18:41;;;;;;;15.63;12.13;;;9.30;99.90;;;;;;4999261;28;20209;-84
2023/02/22 08:21:06;;;;;;;14.70;9.60;;;9.50;99.90;;;;;;4999662;28;20220;-84
2023/02/22 08:23:32;;;;;;;13.77;8.70;;;9.10;99.90;;;;;;4994404;28;20668;-83
2023/02/22 08:26:08;;;;;;;11.87;9.63;;;9.70;99.90;;;;;;4997498;28;20188;-83
2023/02/22 08:28:34;;;;;;;11.65;9.07;;;9.90;99.90;;;;;;5000236;28;20198;-83
2023/02/22 08:31:00;;;;;;;9.90;8.80;;;10.00;99.90;;;;;;4994627;28;20186;-80
2023/02/22 08:33:25;;;;;;;11.20;8.63;;;9.90;99.90;;;;;;4994781;28;20273;-81
2023/02/22 08:35:51;;;;;;;11.43;9.57;;;10.20;99.90;;;;;;5000429;28;20188;-81
2023/02/22 08:38:25;;;;;;;14.40;9.60;;;9.90;99.90;;;;;;4995998;28;20213;-81
2023/02/22 08:40:51;;;;;;;12.55;11.02;;;10.00;99.90;;;;;;4991665;28;20204;-81
2023/02/22 08:43:18;;;;;;;12.43;9.83;;;10.00;99.90;;;;;;4997131;28;20217;-81
2023/02/22 08:45:44;;;;;;;45.92;35.63;;;10.50;99.90;;;;;;4994348;28;20434;-81
2023/02/22 08:48:11;;;;;;;11.18;9.25;;;10.00;99.90;;;;;;4992794;28;20227;-81
2023/02/22 08:50:37;;;;;;;9.85;8.85;;;10.40;99.90;;;;;;4990995;28;20251;-84
2023/02/22 08:53:04;;;;;;;11.80;8.90;;;10.50;99.90;;;;;;4997248;28;20183;-85
2023/02/22 08:55:32;;;;;;;10.20;9.13;;;10.60;99.90;;;;;;5014013;28;20499;-84
2023/02/22 08:58:01;;;;;;;13.93;9.45;;;10.80;99.90;;;;;;5004468;28;20224;-83
2023/02/22 09:00:31;;;;;;;10.50;8.60;;;11.10;99.90;;;;;;4998075;28;20182;-85
2023/02/22 09:03:08;;;;;;;11.15;8.10;;;11.80;99.00;;;;;;5007317;28;20182;-87
2023/02/22 09:05:34;;;;;;;9.57;8.57;;;12.10;97.80;;;;;;5002566;28;20183;-87
2023/02/22 09:08:00;;;;;;;9.53;8.53;;;12.90;96.50;;;;;;5001305;28;20260;-88
2023/02/22 09:10:28;;;;;;;10.35;8.55;;;13.10;95.30;;;;;;5004718;28;20516;-87
2023/02/22 09:12:56;;;;;;;13.55;9.35;;;13.90;94.20;;;;;;5003755;28;20187;-87
2023/02/22 09:15:24;;;;;;;16.58;12.90;;;13.90;93.10;;;;;;5009866;28;20218;-87
2023/02/22 09:17:49;;;;;;;19.42;9.77;;;14.30;92.60;;;;;;5002678;28;20587;-86
2023/02/22 09:20:17;;;;;;;10.37;9.00;;;14.40;92.00;;;;;;5006568;28;20298;-87
2023/02/22 09:22:47;;;;;;;10.68;9.60;;;14.80;91.20;;;;;;5006010;28;20658;-87
2023/02/22 09:25:12;;;;;;;12.10;9.15;;;15.30;90.10;;;;;;5015745;28;20184;-88
2023/02/22 09:27:39;;;;;;;12.80;10.53;;;16.00;89.10;;;;;;5006227;28;20217;-86
2023/02/22 09:30:05;;;;;;;14.48;9.40;;;15.60;88.10;;;;;;5000135;28;20859;-88
2023/02/22 09:32:31;;;;;;;13.73;10.15;;;15.60;88.50;;;;;;5004794;28;20187;-86
2023/02/22 09:34:56;;;;;;;10.57;9.47;;;15.50;89.70;;;;;;5005569;28;20195;-87
2023/02/22 09:37:22;;;;;;;10.23;8.70;;;15.50;89.70;;;;;;5003600;28;20260;-95
2023/02/22 09:39:50;;;;;;;11.50;9.63;;;16.00;87.30;;;;;;4992265;28;20211;-79
2023/02/22 09:42:35;;;;;;;11.80;9.52;;;16.50;86.00;;;;;;4994791;28;20456;-82
2023/02/22 09:45:21;;;;;;;12.57;9.60;;;17.20;83.50;;;;;;5012265;28;20203;-81
2023/02/22 09:47:57;;;;;;;10.68;8.80;;;18.20;81.00;;;;;;4988597;28;20202;-83
2023/02/22 09:50:29;;;;;;;9.38;8.27;;;18.80;78.40;;;;;;4990938;28;20188;-82
2023/02/22 09:53:28;;;;;;;10.88;9.00;;;18.80;75.30;;;;;;4995949;28;20218;-83
2023/02/22 09:55:58;;;;;;;9.57;8.32;;;19.00;75.30;;;;;;4990600;28;20283;-83
2023/02/22 09:58:32;;;;;;;9.02;8.18;;;20.00;73.50;;;;;;4996164;28;20222;-83
2023/02/22 10:01:16;;;;;;;11.45;7.65;;;18.60;72.20;;;;;;4996056;28;20194;-84
2023/02/22 10:03:49;;;;;;;10.85;7.90;;;19.30;72.50;;;;;;4991836;28;20263;-84
2023/02/22 10:06:20;;;;;;;12.80;8.85;;;19.50;72.70;;;;;;4993420;28;20261;-82
2023/02/22 10:08:46;;;;;;;8.38;7.47;;;19.40;73.20;;;;;;5011394;28;20183;-83
2023/02/22 10:11:41;;;;;;;8.20;6.85;;;19.10;72.10;;;;;;4997891;28;20190;-82
2023/02/22 10:14:26;;;;;;;10.63;6.20;;;18.00;74.20;;;;;;4995395;28;20179;-82
2023/02/22 10:17:32;;;;;;;13.07;7.88;;;18.60;74.40;;;;;;5005110;28;20201;-82
2023/02/22 10:20:06;;;;;;;8.00;7.20;;;19.50;71.90;;;;;;4989106;28;20603;-83
2023/02/22 10:22:43;;;;;;;9.48;6.80;;;19.50;70.80;;;;;;5003424;28;20183;-83
2023/02/22 10:25:22;;;;;;;8.73;7.32;;;19.40;70.00;;;;;;4997720;28;20187;-84
2023/02/22 10:27:56;;;;;;;8.10;6.80;;;19.60;71.20;;;;;;5010444;28;21020;-84
2023/02/22 10:30:27;;;;;;;8.57;7.68;;;19.40;70.90;;;;;;4991797;28;20266;-84
2023/02/22 10:33:11;;;;;;;12.05;10.95;;;19.30;70.40;;;;;;5002970;28;20180;-84
2023/02/22 10:35:39;;;;;;;14.32;8.25;;;18.70;71.20;;;;;;4992487;28;20239;-84
2023/02/22 10:38:15;;;;;;;9.07;6.75;;;19.10;72.60;;;;;;4992313;28;20204;-84
2023/02/22 10:40:44;;;;;;;8.40;7.50;;;19.00;72.10;;;;;;5001147;28;20190;-83
2023/02/22 10:43:10;;;;;;;9.98;7.32;;;19.30;70.00;;;;;;4998930;28;20272;-83
2023/02/22 10:45:36;;;;;;;10.77;7.70;;;19.10;69.70;;;;;;4997035;28;20226;-83
2023/02/22 10:48:07;;;;;;;7.77;6.97;;;18.90;69.80;;;;;;5006362;28;20214;-83
2023/02/22 10:50:35;;;;;;;8.52;7.55;;;18.80;70.90;;;;;;5014324;28;20513;-83
2023/02/22 10:53:01;;;;;;;11.25;7.82;;;18.60;71.90;;;;;;4993289;28;20184;-84
2023/02/22 10:55:27;;;;;;;11.90;7.77;;;19.10;71.60;;;;;;5004019;28;20179;-85
2023/02/22 10:58:06;;;;;;;8.07;7.03;;;18.90;70.80;;;;;;4995089;28;20561;-83
2023/02/22 11:00:37;;;;;;;8.48;7.53;;;18.90;70.60;;;;;;4989491;28;20222;-84
2023/02/22 11:03:05;;;;;;;9.75;7.70;;;19.30;69.40;;;;;;4995900;28;20843;-84
2023/02/22 11:05:36;;;;;;;11.52;7.90;;;18.90;69.60;;;;;;4991281;28;20191;-83
2023/02/22 11:08:13;;;;;;;8.50;7.40;;;18.70;70.80;;;;;;4995335;28;20203;-85
2023/02/22 11:10:39;;;;;;;10.95;9.70;;;18.90;70.60;;;;;;4993644;28;20310;-86
2023/02/22 11:13:30;;;;;;;8.77;7.88;;;18.80;70.90;;;;;;5007558;28;20182;-87
2023/02/22 11:16:19;;;;;;;15.10;9.00;;;18.70;71.00;;;;;;4994766;28;20259;-86
2023/02/22 11:18:46;;;;;;;11.57;8.75;;;18.30;71.60;;;;;;4999053;28;21422;-89
2023/02/22 11:21:12;;;;;;;13.02;9.20;;;18.70;73.30;;;;;;5000451;28;20434;-90
2023/02/22 11:23:40;;;;;;;9.60;8.07;;;18.30;72.80;;;;;;4997516;28;20189;-91
2023/02/22 11:26:10;;;;;;;12.60;9.48;;;18.90;73.00;;;;;;4997973;28;20179;-91
2023/02/22 11:28:47;;;;;;;11.38;10.05;;;18.40;72.40;;;;;;4996069;28;20191;-85
2023/02/22 11:31:20;;;;;;;10.30;8.23;;;17.70;74.40;;;;;;4997533;28;20195;-83
2023/02/22 11:33:53;;;;;;;11.20;9.20;;;18.00;73.70;;;;;;4997562;28;20278;-92
2023/02/22 11:36:39;;;;;;;9.48;8.50;;;19.70;76.50;;;;;;5006398;28;20190;-91
2023/02/22 11:39:26;;;;;;;9.00;7.70;;;17.60;75.10;;;;;;5002219;28;20203;-83
2023/02/22 11:41:53;;;;;;;10.00;7.65;;;17.70;75.60;;;;;;5004132;28;20741;-87
2023/02/22 11:44:28;;;;;;;9.52;8.52;;;18.50;77.60;;;;;;4998620;28;20193;-94
2023/02/22 11:46:59;;;;;;;8.88;8.00;;;18.60;74.10;;;;;;5010378;28;20220;-87
2023/02/22 11:49:34;;;;;;;9.75;8.80;;;18.80;77.30;;;;;;4995596;28;20191;-86
2023/02/22 11:52:27;;;;;;;9.23;8.25;;;18.70;73.10;;;;;;4995091;28;20178;-90
2023/02/22 11:55:21;;;;;;;10.30;9.30;;;18.30;75.20;;;;;;5006162;28;20275;-87
2023/02/22 11:57:54;;;;;;;13.50;8.63;;;18.00;75.30;;;;;;5009495;28;20206;-90
2023/02/22 12:00:57;;;;;;;11.27;9.25;;;18.20;76.60;;;;;;4990608;28;20230;-89
2023/02/22 12:03:44;;;;;;;11.55;8.90;;;18.70;76.90;;;;;;4996745;28;20686;-89
2023/02/22 12:06:24;;;;;;;12.88;8.55;;;17.80;77.00;;;;;;5021378;28;20180;-88
2023/02/22 12:09:07;;;;;;;11.75;10.23;;;17.60;78.60;;;;;;4983887;28;20183;-91
2023/02/22 12:11:46;;;;;;;13.10;9.65;;;17.40;79.60;;;;;;5010139;28;20187;-89
2023/02/22 12:14:33;;;;;;;9.38;8.38;;;17.40;79.50;;;;;;5013941;28;20209;-88
2023/02/22 12:17:07;;;;;;;9.82;8.68;;;17.40;79.50;;;;;;4994873;28;20286;-89
2023/02/22 12:19:38;;;;;;;9.60;8.00;;;17.40;79.60;;;;;;5012879;28;20326;-94
2023/02/22 12:22:33;;;;;;;12.82;9.65;;;17.20;78.50;;;;;;5009597;28;20192;-87
2023/02/22 12:25:07;;;;;;;10.70;9.50;;;17.40;78.80;;;;;;4991889;28;20230;-87
2023/02/22 12:27:42;;;;;;;15.07;9.73;;;17.20;80.10;;;;;;5008219;28;20230;-89
2023/02/22 12:30:43;;;;;;;13.52;10.93;;;17.00;80.50;;;;;;5004686;28;20183;-90
2023/02/22 12:33:17;;;;;;;11.15;9.13;;;16.80;81.10;;;;;;4946695;28;20245;-86
2023/02/22 12:35:53;;;;;;;11.43;9.50;;;17.40;81.50;;;;;;5001772;28;20998;-85
2023/02/22 12:38:43;;;;;;;12.30;9.18;;;17.30;82.30;;;;;;4997095;28;20256;-85
2023/02/22 12:41:31;;;;;;;12.95;9.30;;;17.30;81.70;;;;;;5022206;28;20249;-87
2023/02/22 12:44:05;;;;;;;16.65;9.10;;;17.40;80.60;;;;;;5002747;28;20176;-87
2023/02/22 12:46:39;;;;;;;9.60;8.20;;;17.30;80.30;;;;;;4999353;28;20562;-88
2023/02/22 12:49:32;;;;;;;9.98;8.88;;;17.10;80.30;;;;;;5010122;28;20184;-85
2023/02/22 12:52:09;;;;;;;12.18;10.18;;;17.20;81.00;;;;;;5005652;28;20191;-86
2023/02/22 12:54:50;;;;;;;10.07;8.63;;;17.40;80.90;;;;;;5007535;28;20643;-86
2023/02/22 12:57:43;;;;;;;9.73;8.73;;;17.50;80.70;;;;;;5025338;28;20194;-86
2023/02/22 13:00:25;;;;;;;12.73;11.00;;;17.20;79.90;;;;;;5018047;28;20290;-88
2023/02/22 13:02:59;;;;;;;12.63;9.88;;;16.90;79.60;;;;;;4998675;28;20190;-87
2023/02/22 13:05:25;;;;;;;11.02;9.52;;;17.40;80.80;;;;;;5005467;28;20551;-86
2023/02/22 13:08:08;;;;;;;11.23;9.30;;;16.80;80.70;;;;;;5004388;28;20206;-91